createdAt,value
2022-10-25T00:02:19.835Z,13.07
2022-10-25T00:12:23.737Z,13.02
2022-10-25T00:22:29.540Z,12.93
2022-10-25T00:32:34.696Z,12.92
2022-10-25T00:42:38.211Z,12.96
2022-10-25T00:52:44.871Z,12.91
2022-10-25T01:02:49.035Z,12.84
2022-10-25T01:12:53.382Z,12.93
2022-10-25T01:23:19.599Z,12.89
2022-10-25T01:33:38.306Z,12.92
2022-10-25T01:44:09.095Z,13.03
2022-10-25T01:54:27.898Z,12.98
2022-10-25T02:04:50.264Z,13.08
2022-10-25T02:15:29.048Z,12.99
2022-10-25T02:25:37.831Z,12.99
2022-10-25T02:35:41.493Z,12.95
2022-10-25T02:45:45.510Z,12.91
2022-10-25T02:55:49.146Z,12.87
2022-10-25T03:05:53.226Z,12.88
2022-10-25T03:15:57.076Z,12.71
2022-10-25T03:26:01.469Z,12.75
2022-10-25T03:36:05.813Z,12.74
2022-10-25T03:46:09.424Z,12.81
2022-10-25T03:56:12.982Z,12.89
2022-10-25T04:06:16.648Z,12.93
2022-10-25T04:16:20.200Z,13.02
2022-10-25T04:26:23.867Z,13.04
2022-10-25T04:36:30.220Z,13.06
2022-10-25T04:46:33.964Z,12.99
2022-10-25T04:56:37.639Z,12.98
2022-10-25T05:06:41.192Z,13.07
2022-10-25T05:16:45.058Z,13.13
2022-10-25T05:26:49.130Z,13.18
2022-10-25T05:36:52.614Z,13.18
2022-10-25T05:46:56.388Z,13.15
2022-10-25T05:57:00.037Z,13.18
2022-10-25T06:07:03.801Z,13.07
2022-10-25T06:17:07.360Z,13.08
2022-10-25T06:27:11.337Z,13.29
2022-10-25T06:37:15.947Z,13.55
2022-10-25T06:47:19.689Z,13.76
2022-10-25T06:57:24.428Z,13.94
2022-10-25T07:07:28.549Z,14.05
2022-10-25T07:17:32.538Z,14.12
2022-10-25T07:27:36.186Z,14.22
2022-10-25T07:37:39.848Z,14.16
2022-10-25T07:47:43.513Z,14.04
2022-10-25T07:57:47.255Z,14.45
2022-10-25T08:07:51.579Z,14.99
2022-10-25T08:18:02.755Z,15.38
2022-10-25T08:28:06.900Z,15.50
2022-10-25T08:38:10.544Z,15.35
2022-10-25T08:48:19.823Z,15.46
2022-10-25T08:58:30.205Z,15.73
2022-10-25T09:08:43.239Z,15.98
2022-10-25T09:18:56.638Z,16.14
2022-10-25T09:29:09.193Z,16.28
2022-10-25T09:39:42.132Z,16.71
2022-10-25T09:50:01.066Z,16.89
2022-10-25T10:00:06.008Z,16.97
2022-10-25T10:10:25.766Z,17.34
2022-10-25T10:20:29.532Z,17.70
2022-10-25T10:30:39.334Z,17.51
2022-10-25T10:40:44.680Z,17.33
2022-10-25T10:50:50.905Z,17.27
2022-10-25T11:01:04.362Z,17.10
2022-10-25T11:11:13.179Z,16.97
2022-10-25T11:21:42.796Z,16.85
2022-10-25T11:32:20.766Z,17.15
2022-10-25T11:42:49.657Z,17.51
2022-10-25T11:53:03.398Z,17.77
2022-10-25T12:03:09.936Z,18.06
2022-10-25T12:13:16.847Z,18.14
2022-10-25T12:23:24.617Z,17.83
2022-10-25T12:33:44.237Z,17.36
2022-10-25T12:44:02.939Z,16.91
2022-10-25T12:54:15.108Z,16.76
2022-10-25T13:04:44.777Z,16.68
2022-10-25T13:14:52.275Z,16.62
2022-10-25T13:24:56.706Z,16.70
2022-10-25T13:35:03.035Z,16.72
2022-10-25T13:45:16.052Z,16.75
2022-10-25T13:55:23.049Z,16.50
2022-10-25T14:05:57.512Z,16.22
2022-10-25T14:16:05.785Z,16.06
2022-10-25T14:26:15.462Z,16.21
2022-10-25T14:36:22.326Z,16.27
2022-10-25T14:46:28.508Z,16.12
2022-10-25T14:56:36.920Z,15.98
2022-10-25T15:06:41.329Z,15.80
2022-10-25T15:16:48.763Z,15.55
2022-10-25T15:26:55.802Z,15.18
2022-10-25T15:37:00.700Z,14.74
2022-10-25T15:47:04.974Z,14.30
2022-10-25T15:57:08.945Z,13.76
2022-10-25T16:07:13.656Z,13.11
2022-10-25T16:17:17.927Z,12.78
2022-10-25T16:27:22.091Z,12.49
2022-10-25T16:37:25.965Z,12.13
2022-10-25T16:47:30.356Z,11.89
2022-10-25T16:57:35.071Z,11.72
2022-10-25T17:07:43.620Z,11.48
2022-10-25T17:17:48.765Z,11.40
2022-10-25T17:27:54.827Z,11.25
2022-10-25T17:37:59.633Z,11.12
2022-10-25T17:48:05.399Z,10.95
2022-10-25T17:58:09.941Z,10.90
2022-10-25T18:08:14.918Z,10.90
2022-10-25T18:18:20.901Z,10.76
2022-10-25T18:28:26.150Z,10.56
2022-10-25T18:38:31.447Z,10.54
2022-10-25T18:48:55.516Z,10.52
2022-10-25T18:59:01.089Z,10.54
2022-10-25T19:09:05.981Z,10.44
2022-10-25T19:19:12.731Z,10.28
2022-10-25T19:29:18.319Z,10.04
2022-10-25T19:39:23.851Z,9.70
2022-10-25T19:49:28.221Z,9.36
2022-10-25T19:59:36.997Z,9.14
2022-10-25T20:09:41.688Z,8.90
2022-10-25T20:19:46.883Z,8.65
2022-10-25T20:29:51.403Z,8.52
2022-10-25T20:39:56.170Z,8.34
2022-10-25T20:50:01.476Z,8.36
2022-10-25T21:00:07.237Z,8.31
2022-10-25T21:10:11.055Z,8.08
2022-10-25T21:20:15.328Z,7.80
2022-10-25T21:30:19.301Z,7.65
2022-10-25T21:40:22.864Z,7.55
2022-10-25T21:50:26.634Z,7.47
2022-10-25T22:00:30.418Z,7.48
2022-10-25T22:10:33.943Z,7.65
2022-10-25T22:20:37.435Z,7.69
2022-10-25T22:30:41.200Z,7.69
2022-10-25T22:40:44.967Z,7.65
2022-10-25T22:50:55.119Z,7.52
2022-10-25T23:11:17.049Z,7.70
2022-10-25T23:21:26.241Z,7.79
2022-10-25T23:31:30.981Z,7.86
2022-10-25T23:41:35.022Z,7.91
2022-10-25T23:51:38.886Z,7.98
